createdAt,value
2019-03-04T00:00:47.551Z,51.50
2019-03-04T00:03:14.089Z,51.50
2019-03-04T00:05:40.624Z,51.50
2019-03-04T00:08:07.464Z,51.50
2019-03-04T00:10:34.001Z,51.50
2019-03-04T00:13:01.963Z,51.20
2019-03-04T00:15:28.603Z,51.40
2019-03-04T00:17:55.544Z,51.20
2019-03-04T00:20:22.285Z,50.90
2019-03-04T00:22:49.147Z,50.70
2019-03-04T00:25:15.665Z,51.20
2019-03-04T00:27:42.202Z,51.10
2019-03-04T00:30:08.834Z,50.80
2019-03-04T00:32:35.654Z,50.50
2019-03-04T00:35:02.415Z,50.50
2019-03-04T00:37:28.948Z,50.80
2019-03-04T00:39:55.775Z,50.60
2019-03-04T00:42:22.330Z,51.10
2019-03-04T00:44:49.172Z,50.60
2019-03-04T00:47:15.707Z,51.00
2019-03-04T00:49:42.239Z,50.80
2019-03-04T00:52:09.126Z,50.90
2019-03-04T00:54:35.903Z,50.70
2019-03-04T00:57:02.766Z,50.60
2019-03-04T00:59:31.421Z,50.80
2019-03-04T01:01:58.289Z,50.90
2019-03-04T01:04:24.771Z,51.00
2019-03-04T01:06:51.360Z,51.10
2019-03-04T01:09:18.798Z,51.40
2019-03-04T01:11:45.347Z,51.40
2019-03-04T01:14:13.414Z,51.50
2019-03-04T01:16:39.959Z,51.60
2019-03-04T01:19:07.228Z,51.60
2019-03-04T01:21:33.945Z,51.80
2019-03-04T01:24:00.856Z,51.80
2019-03-04T01:26:27.629Z,52.00
2019-03-04T01:28:54.163Z,52.00
2019-03-04T01:31:21.003Z,52.20
2019-03-04T01:33:47.552Z,52.80
2019-03-04T01:36:14.380Z,52.50
2019-03-04T01:38:41.221Z,52.60
2019-03-04T01:41:07.755Z,52.60
2019-03-04T01:43:34.287Z,52.70
2019-03-04T01:46:01.132Z,53.00
2019-03-04T01:48:27.667Z,52.90
2019-03-04T01:50:54.508Z,53.00
2019-03-04T01:53:21.043Z,53.00
2019-03-04T01:55:47.884Z,53.00
2019-03-04T01:58:14.520Z,53.30
2019-03-04T02:00:41.854Z,53.10
2019-03-04T02:03:09.743Z,53.30
2019-03-04T02:05:37.379Z,53.20
2019-03-04T02:08:03.937Z,53.30
2019-03-04T02:10:31.532Z,53.40
2019-03-04T02:12:58.229Z,53.60
2019-03-04T02:15:25.627Z,53.60
2019-03-04T02:17:52.226Z,53.50
2019-03-04T02:20:19.068Z,53.50
2019-03-04T02:22:45.906Z,53.50
2019-03-04T02:25:12.489Z,53.70
2019-03-04T02:27:39.278Z,53.80
2019-03-04T02:30:05.813Z,53.70
2019-03-04T02:32:32.346Z,53.80
2019-03-04T02:34:59.514Z,53.40
2019-03-04T02:37:26.342Z,53.30
2019-03-04T02:39:53.196Z,53.50
2019-03-04T02:42:20.217Z,53.60
2019-03-04T02:44:46.879Z,53.40
2019-03-04T02:47:13.705Z,53.20
2019-03-04T02:49:40.570Z,53.40
2019-03-04T02:52:07.079Z,53.50
2019-03-04T02:54:33.621Z,53.00
2019-03-04T02:57:00.466Z,53.20
2019-03-04T02:59:27.306Z,53.60
2019-03-04T03:01:53.841Z,53.20
2019-03-04T03:04:20.376Z,53.20
2019-03-04T03:06:46.909Z,52.90
2019-03-04T03:09:13.435Z,53.40
2019-03-04T03:11:40.384Z,53.00
2019-03-04T03:14:07.129Z,53.00
2019-03-04T03:16:33.659Z,52.80
2019-03-04T03:19:00.190Z,52.90
2019-03-04T03:21:26.730Z,52.90
2019-03-04T03:23:53.265Z,53.00
2019-03-04T03:26:19.794Z,53.30
2019-03-04T03:28:46.271Z,53.10
2019-03-04T03:31:12.861Z,53.20
2019-03-04T03:33:39.402Z,53.10
2019-03-04T03:36:06.236Z,53.10
2019-03-04T03:38:32.779Z,53.40
2019-03-04T03:40:59.618Z,53.10
2019-03-04T03:43:26.065Z,52.80
2019-03-04T03:45:52.682Z,52.80
2019-03-04T03:48:19.533Z,53.30
2019-03-04T03:50:46.065Z,53.20
2019-03-04T03:53:12.901Z,53.20
2019-03-04T03:55:39.742Z,53.20
2019-03-04T03:58:06.465Z,53.00
2019-03-04T04:00:33.123Z,53.20
2019-03-04T04:02:59.657Z,53.30
2019-03-04T04:05:26.501Z,53.20
2019-03-04T04:07:53.054Z,53.60
2019-03-04T04:10:19.872Z,53.30
2019-03-04T04:12:46.722Z,53.50
2019-03-04T04:15:13.168Z,53.50
2019-03-04T04:17:39.624Z,53.40
2019-03-04T04:20:06.146Z,53.20
2019-03-04T04:22:32.850Z,53.60
2019-03-04T04:24:59.468Z,53.50
2019-03-04T04:27:26.227Z,53.30
2019-03-04T04:29:52.758Z,53.40
2019-03-04T04:32:19.399Z,53.30
2019-03-04T04:34:46.134Z,53.00
2019-03-04T04:37:12.980Z,52.70
2019-03-04T04:39:39.822Z,53.20
2019-03-04T04:42:06.357Z,53.50
2019-03-04T04:44:32.889Z,53.20
2019-03-04T04:46:59.428Z,52.80
2019-03-04T04:49:26.045Z,53.10
2019-03-04T04:51:52.798Z,53.40
2019-03-04T04:54:19.243Z,53.30
2019-03-04T04:56:45.869Z,53.30
2019-03-04T04:59:12.404Z,53.00
2019-03-04T05:01:39.246Z,53.10
2019-03-04T05:04:05.889Z,53.30
2019-03-04T05:06:32.620Z,53.10
2019-03-04T05:08:59.164Z,53.00
2019-03-04T05:11:26.005Z,52.90
2019-03-04T05:13:52.620Z,53.30
2019-03-04T05:16:19.387Z,52.90
2019-03-04T05:18:45.831Z,53.30
2019-03-04T05:21:12.444Z,53.40
2019-03-04T05:23:38.976Z,53.30
2019-03-04T05:26:05.822Z,53.10
2019-03-04T05:28:32.410Z,53.00
2019-03-04T05:30:58.980Z,52.80
2019-03-04T05:33:25.728Z,53.00
2019-03-04T05:35:52.269Z,53.20
2019-03-04T05:38:19.104Z,52.60
2019-03-04T05:40:45.947Z,53.10
2019-03-04T05:43:12.489Z,53.00
2019-03-04T05:45:39.019Z,53.20
2019-03-04T05:48:07.578Z,53.20
2019-03-04T05:50:33.929Z,53.70
2019-03-04T05:53:00.472Z,53.40
2019-03-04T05:55:27.302Z,53.50
2019-03-04T05:57:53.836Z,53.60
2019-03-04T06:00:20.679Z,53.40
2019-03-04T06:02:47.192Z,53.80
2019-03-04T06:05:13.710Z,53.80
2019-03-04T06:07:40.179Z,53.80
2019-03-04T06:10:06.817Z,53.90
2019-03-04T06:12:33.353Z,53.80
2019-03-04T06:15:00.324Z,54.10
2019-03-04T06:17:26.846Z,54.00
2019-03-04T06:19:53.588Z,54.00
2019-03-04T06:22:20.107Z,53.70
2019-03-04T06:24:46.954Z,53.80
2019-03-04T06:27:13.786Z,53.70
2019-03-04T06:29:40.333Z,53.80
2019-03-04T06:32:06.858Z,53.90
2019-03-04T06:34:33.396Z,53.90
2019-03-04T06:36:59.929Z,54.00
2019-03-04T06:39:26.522Z,54.10
2019-03-04T06:41:53.306Z,54.10
2019-03-04T06:44:19.835Z,53.90
2019-03-04T06:46:46.730Z,53.90
2019-03-04T06:49:13.521Z,53.90
2019-03-04T06:51:40.053Z,53.80
2019-03-04T06:54:06.589Z,54.00
2019-03-04T06:56:33.130Z,54.20
2019-03-04T06:58:59.662Z,53.90
2019-03-04T07:01:26.194Z,53.70
2019-03-04T07:03:53.032Z,53.70
2019-03-04T07:06:19.571Z,53.60
2019-03-04T07:08:46.107Z,54.00
2019-03-04T07:11:12.643Z,53.90
2019-03-04T07:13:39.483Z,53.60
2019-03-04T07:16:06.018Z,54.10
2019-03-04T07:18:32.558Z,53.60
2019-03-04T07:20:59.389Z,53.00
2019-03-04T07:23:25.937Z,54.00
2019-03-04T07:25:52.769Z,54.00
2019-03-04T07:28:19.610Z,53.30
2019-03-04T07:30:46.140Z,53.80
2019-03-04T07:33:12.677Z,54.50
2019-03-04T07:35:39.208Z,53.70
2019-03-04T07:38:05.750Z,53.90
2019-03-04T07:40:32.590Z,53.50
2019-03-04T07:42:59.167Z,53.50
2019-03-04T07:45:25.969Z,53.40
2019-03-04T07:47:52.495Z,53.40
2019-03-04T07:50:19.030Z,53.80
2019-03-04T07:52:45.583Z,53.90
2019-03-04T07:55:12.101Z,54.20
2019-03-04T07:57:38.940Z,54.40
2019-03-04T08:00:05.782Z,55.10
2019-03-04T08:02:32.325Z,54.10
2019-03-04T08:04:59.164Z,54.20
2019-03-04T08:07:25.705Z,54.60
2019-03-04T08:09:52.282Z,54.30
2019-03-04T08:12:19.073Z,54.10
2019-03-04T08:14:45.709Z,54.00
2019-03-04T08:17:12.456Z,54.40
2019-03-04T08:19:38.981Z,53.90
2019-03-04T08:22:05.515Z,53.20
2019-03-04T08:24:32.051Z,52.10
2019-03-04T08:26:58.590Z,52.40
2019-03-04T08:29:25.440Z,52.70
2019-03-04T08:31:51.963Z,52.80
2019-03-04T08:34:18.805Z,52.50
2019-03-04T08:36:45.630Z,51.70
2019-03-04T08:39:12.097Z,51.50
2019-03-04T08:41:38.722Z,51.60
2019-03-04T08:44:05.553Z,49.10
2019-03-04T08:46:32.036Z,41.50
2019-03-04T08:48:58.528Z,42.10
2019-03-04T08:51:25.042Z,41.20
2019-03-04T08:53:51.694Z,40.70
2019-03-04T08:56:18.239Z,39.40
2019-03-04T08:58:45.070Z,39.30
2019-03-04T09:01:11.603Z,37.90
2019-03-04T09:03:38.137Z,38.80
2019-03-04T09:06:04.981Z,39.70
2019-03-04T09:08:31.768Z,38.70
2019-03-04T09:10:59.049Z,38.10
2019-03-04T09:13:27.062Z,36.50
2019-03-04T09:15:53.884Z,38.10
2019-03-04T09:18:20.414Z,38.20
2019-03-04T09:20:47.031Z,38.10
2019-03-04T09:23:13.795Z,38.30
2019-03-04T09:25:40.631Z,38.00
2019-03-04T09:28:07.172Z,38.30
2019-03-04T09:30:33.706Z,37.20
2019-03-04T09:33:00.194Z,37.20
2019-03-04T09:35:26.769Z,36.80
2019-03-04T09:37:53.617Z,36.10
2019-03-04T09:40:20.147Z,36.50
2019-03-04T09:42:46.988Z,36.20
2019-03-04T09:45:13.525Z,37.00
2019-03-04T09:47:40.374Z,36.40
2019-03-04T09:50:07.209Z,37.10
2019-03-04T09:52:33.747Z,37.40
2019-03-04T09:55:00.593Z,38.40
2019-03-04T09:57:27.425Z,39.20
2019-03-04T09:59:53.959Z,40.40
2019-03-04T10:02:20.539Z,37.60
2019-03-04T10:04:47.337Z,36.80
2019-03-04T10:07:13.872Z,37.30
2019-03-04T10:09:40.721Z,36.70
2019-03-04T10:12:07.555Z,37.50
2019-03-04T10:14:34.088Z,36.80
2019-03-04T10:17:01.040Z,36.60
2019-03-04T10:19:27.773Z,38.50
2019-03-04T10:21:54.218Z,38.00
2019-03-04T10:24:20.694Z,38.20
2019-03-04T10:26:47.214Z,37.70
2019-03-04T10:29:13.910Z,38.90
2019-03-04T10:31:40.444Z,36.70
2019-03-04T10:34:07.283Z,37.50
2019-03-04T10:36:33.820Z,38.00
2019-03-04T10:39:00.661Z,37.00
2019-03-04T10:41:27.196Z,37.00
2019-03-04T10:43:53.729Z,36.60
2019-03-04T10:46:20.573Z,37.70
2019-03-04T10:48:47.414Z,38.80
2019-03-04T10:51:14.050Z,40.20
2019-03-04T10:53:40.793Z,36.60
2019-03-04T10:56:07.326Z,36.90
2019-03-04T10:58:33.859Z,36.90
2019-03-04T11:01:00.701Z,37.60
2019-03-04T11:03:27.241Z,36.90
2019-03-04T11:05:53.777Z,36.70
2019-03-04T11:08:20.918Z,38.00
2019-03-04T11:10:47.763Z,36.80
2019-03-04T11:13:14.297Z,37.50
2019-03-04T11:15:40.827Z,37.40
2019-03-04T11:18:07.364Z,38.70
2019-03-04T11:20:34.209Z,38.00
2019-03-04T11:23:01.046Z,37.50
2019-03-04T11:25:27.582Z,36.40
2019-03-04T11:27:54.118Z,38.10
2019-03-04T11:30:20.652Z,37.50
2019-03-04T11:32:47.492Z,38.70
2019-03-04T11:35:14.027Z,36.80
2019-03-04T11:37:40.561Z,35.80
2019-03-04T11:40:07.403Z,36.60
2019-03-04T11:42:33.939Z,36.90
2019-03-04T11:45:00.779Z,38.00
2019-03-04T11:47:27.314Z,36.80
2019-03-04T11:49:53.849Z,36.90
2019-03-04T11:52:20.690Z,37.10
2019-03-04T11:54:47.225Z,38.20
2019-03-04T11:57:14.064Z,38.60
2019-03-04T11:59:40.586Z,36.30
2019-03-04T12:02:07.133Z,36.40
2019-03-04T12:04:33.591Z,37.40
2019-03-04T12:07:00.087Z,34.80
2019-03-04T12:09:26.746Z,35.20
2019-03-04T12:11:53.276Z,36.20
2019-03-04T12:14:19.804Z,34.90
2019-03-04T12:16:46.353Z,36.30
2019-03-04T12:19:12.873Z,35.80
2019-03-04T12:21:39.718Z,35.40
2019-03-04T12:24:06.250Z,37.00
2019-03-04T12:26:32.826Z,36.60
2019-03-04T12:28:59.625Z,37.40
2019-03-04T12:31:28.285Z,35.30
2019-03-04T12:33:54.548Z,34.80
2019-03-04T12:36:21.087Z,34.30
2019-03-04T12:38:47.916Z,35.30
2019-03-04T12:41:14.450Z,35.40
2019-03-04T12:43:40.986Z,36.50
2019-03-04T12:46:07.628Z,35.70
2019-03-04T12:48:34.361Z,37.10
2019-03-04T12:51:00.901Z,37.20
2019-03-04T12:53:36.838Z,36.20
2019-03-04T12:55:55.583Z,36.20
2019-03-04T12:58:22.341Z,36.80
2019-03-04T13:00:48.878Z,35.30
2019-03-04T13:03:15.413Z,38.40
2019-03-04T13:05:41.951Z,34.00
2019-03-04T13:08:08.480Z,33.90
2019-03-04T13:10:35.331Z,35.40
2019-03-04T13:13:01.866Z,35.90
2019-03-04T13:15:28.388Z,36.40
2019-03-04T13:17:54.925Z,35.50
2019-03-04T13:20:21.457Z,34.90
2019-03-04T13:22:48.309Z,34.40
2019-03-04T13:25:14.836Z,35.00
2019-03-04T13:27:41.680Z,36.30
2019-03-04T13:30:08.212Z,34.50
2019-03-04T13:32:34.753Z,36.40
2019-03-04T13:35:01.589Z,38.40
2019-03-04T13:37:28.124Z,37.80
2019-03-04T13:39:55.297Z,36.50
2019-03-04T13:42:21.843Z,36.30
2019-03-04T13:44:48.321Z,36.30
2019-03-04T13:47:14.856Z,35.70
2019-03-04T13:49:41.652Z,35.60
2019-03-04T13:52:08.590Z,36.50
2019-03-04T13:54:35.078Z,34.50
2019-03-04T13:57:01.686Z,36.40
2019-03-04T13:59:28.469Z,35.60
2019-03-04T14:01:54.934Z,35.20
2019-03-04T14:04:21.437Z,34.90
2019-03-04T14:06:47.999Z,36.40
2019-03-04T14:09:14.527Z,36.00
2019-03-04T14:11:41.353Z,35.80
2019-03-04T14:14:08.386Z,34.60
2019-03-04T14:16:35.041Z,35.90
2019-03-04T14:19:01.570Z,35.50
2019-03-04T14:21:28.626Z,34.50
2019-03-04T14:23:55.185Z,35.10
2019-03-04T14:26:21.778Z,34.70
2019-03-04T14:28:48.427Z,34.30
2019-03-04T14:31:15.002Z,36.40
2019-03-04T14:33:41.800Z,33.60
2019-03-04T14:36:08.312Z,33.80
2019-03-04T14:38:34.803Z,33.70
2019-03-04T14:41:01.275Z,34.60
2019-03-04T14:43:27.761Z,35.10
2019-03-04T14:45:54.420Z,35.80
2019-03-04T14:48:21.648Z,34.60
2019-03-04T14:50:48.112Z,34.80
2019-03-04T14:53:14.607Z,35.40
2019-03-04T14:55:41.159Z,34.90
2019-03-04T14:58:07.732Z,35.20
2019-03-04T15:00:34.295Z,35.30
2019-03-04T15:03:00.794Z,35.80
2019-03-04T15:05:27.220Z,35.80
2019-03-04T15:07:55.597Z,36.10
2019-03-04T15:10:21.904Z,35.30
2019-03-04T15:12:48.458Z,35.90
2019-03-04T15:15:15.025Z,35.60
2019-03-04T15:17:41.584Z,36.20
2019-03-04T15:20:09.675Z,34.50
2019-03-04T15:22:36.477Z,35.80
2019-03-04T15:25:03.314Z,36.00
2019-03-04T15:27:31.077Z,36.30
2019-03-04T15:29:57.923Z,35.50
2019-03-04T15:32:24.465Z,35.70
2019-03-04T15:34:50.991Z,36.50
2019-03-04T15:37:17.527Z,36.40
2019-03-04T15:39:44.059Z,37.00
2019-03-04T15:42:10.600Z,36.50
2019-03-04T15:44:37.125Z,36.20
2019-03-04T15:47:03.968Z,36.70
2019-03-04T15:49:30.819Z,36.80
2019-03-04T15:51:57.288Z,36.30
2019-03-04T15:54:23.889Z,36.10
2019-03-04T15:56:50.748Z,36.50
2019-03-04T15:59:17.585Z,36.70
2019-03-04T16:01:44.717Z,36.80
2019-03-04T16:04:11.242Z,36.40
2019-03-04T16:06:37.783Z,36.40
2019-03-04T16:09:04.318Z,36.20
2019-03-04T16:11:31.167Z,36.20
2019-03-04T16:13:58.003Z,36.00
2019-03-04T16:16:24.582Z,36.30
2019-03-04T16:18:51.379Z,36.20
2019-03-04T16:21:17.909Z,36.20
2019-03-04T16:23:44.445Z,36.30
2019-03-04T16:26:11.283Z,36.00
2019-03-04T16:28:37.821Z,36.30
2019-03-04T16:31:04.672Z,36.10
2019-03-04T16:33:32.678Z,36.20
2019-03-04T16:36:00.218Z,36.50
2019-03-04T16:38:26.768Z,36.50
2019-03-04T16:40:53.565Z,36.70
2019-03-04T16:43:20.099Z,37.80
2019-03-04T16:45:46.640Z,37.60
2019-03-04T16:48:13.175Z,38.00
2019-03-04T16:50:40.009Z,38.70
2019-03-04T16:53:06.545Z,38.60
2019-03-04T16:55:33.384Z,39.20
2019-03-04T16:57:59.929Z,39.60
2019-03-04T17:00:26.768Z,39.30
2019-03-04T17:02:53.600Z,39.70
2019-03-04T17:05:20.139Z,39.90
2019-03-04T17:07:46.679Z,41.10
2019-03-04T17:10:13.513Z,40.90
2019-03-04T17:12:40.051Z,42.50
2019-03-04T17:15:07.505Z,43.00
2019-03-04T17:17:34.054Z,43.40
2019-03-04T17:20:00.882Z,43.40
2019-03-04T17:22:27.722Z,43.70
2019-03-04T17:24:54.262Z,43.90
2019-03-04T17:27:21.330Z,43.50
2019-03-04T17:29:47.799Z,43.60
2019-03-04T17:32:14.479Z,43.80
2019-03-04T17:34:41.013Z,44.50
2019-03-04T17:37:07.541Z,43.60
2019-03-04T17:39:34.411Z,43.80
2019-03-04T17:42:01.226Z,43.90
2019-03-04T17:44:27.759Z,43.70
2019-03-04T17:46:54.300Z,43.60
2019-03-04T17:49:21.135Z,43.60
2019-03-04T17:51:47.984Z,43.70
2019-03-04T17:54:14.517Z,43.80
2019-03-04T17:56:41.354Z,43.50
2019-03-04T17:59:07.894Z,43.80
2019-03-04T18:01:34.426Z,44.00
2019-03-04T18:04:01.571Z,44.20
2019-03-04T18:06:28.420Z,44.00
2019-03-04T18:08:55.258Z,44.40
2019-03-04T18:11:21.794Z,44.70
2019-03-04T18:13:48.424Z,44.60
2019-03-04T18:16:15.256Z,44.20
2019-03-04T18:18:42.012Z,44.80
2019-03-04T18:21:08.540Z,44.50
2019-03-04T18:23:35.159Z,44.80
2019-03-04T18:26:01.917Z,44.90
2019-03-04T18:28:28.766Z,44.80
2019-03-04T18:30:55.304Z,44.60
2019-03-04T18:33:22.136Z,45.30
2019-03-04T18:35:48.674Z,45.30
2019-03-04T18:38:15.513Z,44.90
2019-03-04T18:40:42.134Z,45.40
2019-03-04T18:43:08.930Z,45.10
2019-03-04T18:45:35.728Z,45.60
2019-03-04T18:48:02.333Z,45.40
2019-03-04T18:50:29.127Z,45.30
2019-03-04T18:52:55.747Z,44.50
2019-03-04T18:55:22.495Z,45.40
2019-03-04T18:57:48.982Z,45.30
2019-03-04T19:00:15.451Z,45.20
2019-03-04T19:02:41.939Z,45.20
2019-03-04T19:05:08.458Z,45.40
2019-03-04T19:07:34.951Z,44.90
2019-03-04T19:10:01.472Z,45.00
2019-03-04T19:12:28.028Z,45.80
2019-03-04T19:14:54.568Z,46.00
2019-03-04T19:17:21.300Z,46.10
2019-03-04T19:19:47.831Z,46.10
2019-03-04T19:22:14.359Z,45.80
2019-03-04T19:24:41.204Z,45.80
2019-03-04T19:27:07.735Z,46.40
2019-03-04T19:29:34.577Z,46.30
2019-03-04T19:32:01.118Z,47.00
2019-03-04T19:34:27.957Z,46.60
2019-03-04T19:36:54.491Z,47.40
2019-03-04T19:39:21.023Z,46.80
2019-03-04T19:41:47.865Z,46.90
2019-03-04T19:44:14.418Z,46.70
2019-03-04T19:46:40.887Z,46.60
2019-03-04T19:49:07.773Z,47.10
2019-03-04T19:51:34.313Z,47.20
2019-03-04T19:54:01.157Z,47.10
2019-03-04T19:56:27.693Z,47.30
2019-03-04T19:58:54.311Z,47.40
2019-03-04T20:01:21.081Z,47.40
2019-03-04T20:03:47.596Z,47.20
2019-03-04T20:06:14.443Z,47.20
2019-03-04T20:08:40.974Z,47.40
2019-03-04T20:11:07.813Z,47.40
2019-03-04T20:13:34.353Z,47.60
2019-03-04T20:16:01.191Z,47.40
2019-03-04T20:18:27.811Z,48.10
2019-03-04T20:20:54.567Z,48.20
2019-03-04T20:23:21.102Z,47.70
2019-03-04T20:25:47.950Z,48.10
2019-03-04T20:28:14.480Z,48.50
2019-03-04T20:30:41.385Z,47.50
2019-03-04T20:33:08.164Z,47.70
2019-03-04T20:35:34.702Z,47.60
2019-03-04T20:38:01.231Z,47.20
2019-03-04T20:40:27.825Z,47.80
2019-03-04T20:42:54.608Z,47.50
2019-03-04T20:45:21.142Z,45.00
2019-03-04T20:47:47.984Z,42.90
2019-03-04T20:50:14.521Z,42.70
2019-03-04T20:52:41.053Z,42.10
2019-03-04T20:55:07.688Z,43.00
2019-03-04T20:57:34.439Z,43.00
2019-03-04T21:00:00.965Z,44.40
2019-03-04T21:02:27.514Z,45.40
2019-03-04T21:04:54.337Z,45.60
2019-03-04T21:07:20.926Z,45.70
2019-03-04T21:09:47.715Z,45.60
2019-03-04T21:12:14.247Z,46.20
2019-03-04T21:14:41.088Z,45.90
2019-03-04T21:17:07.625Z,46.40
2019-03-04T21:19:34.466Z,46.10
2019-03-04T21:22:00.926Z,46.60
2019-03-04T21:24:27.844Z,46.30
2019-03-04T21:26:54.989Z,47.00
2019-03-04T21:29:29.907Z,46.60
2019-03-04T21:31:49.902Z,47.30
2019-03-04T21:34:16.752Z,47.00
2019-03-04T21:36:43.894Z,47.10
2019-03-04T21:39:10.923Z,47.40
2019-03-04T21:41:37.588Z,47.50
2019-03-04T21:44:06.115Z,47.50
2019-03-04T21:46:32.821Z,47.20
2019-03-04T21:49:00.146Z,47.60
2019-03-04T21:51:26.791Z,47.80
2019-03-04T21:53:53.326Z,47.50
2019-03-04T21:56:20.167Z,47.70
2019-03-04T21:58:46.695Z,48.20
2019-03-04T22:01:13.230Z,48.20
2019-03-04T22:03:41.237Z,48.20
2019-03-04T22:06:08.428Z,48.20
2019-03-04T22:08:34.946Z,48.40
2019-03-04T22:11:01.436Z,48.60
2019-03-04T22:13:28.075Z,48.80
2019-03-04T22:15:54.538Z,48.60
2019-03-04T22:18:21.012Z,48.90
2019-03-04T22:20:47.655Z,48.80
2019-03-04T22:23:14.505Z,49.00
2019-03-04T22:25:40.953Z,48.90
2019-03-04T22:28:07.467Z,49.00
2019-03-04T22:30:34.409Z,48.80
2019-03-04T22:33:01.270Z,48.60
2019-03-04T22:35:28.731Z,49.00
2019-03-04T22:37:55.572Z,49.30
2019-03-04T22:40:22.088Z,49.40
2019-03-04T22:42:48.621Z,49.00
2019-03-04T22:45:15.258Z,49.20
2019-03-04T22:47:41.990Z,49.40
2019-03-04T22:50:08.881Z,49.00
2019-03-04T22:52:35.989Z,49.40
2019-03-04T22:55:02.519Z,49.40
2019-03-04T22:57:29.369Z,49.40
2019-03-04T22:59:57.140Z,49.50
2019-03-04T23:02:24.297Z,49.40
2019-03-04T23:04:51.455Z,49.40
2019-03-04T23:07:18.572Z,49.60
2019-03-04T23:09:45.146Z,49.40
2019-03-04T23:12:11.810Z,49.40
2019-03-04T23:14:38.482Z,49.60
2019-03-04T23:17:05.017Z,49.80
2019-03-04T23:19:31.557Z,49.80
2019-03-04T23:21:58.390Z,49.80
2019-03-04T23:24:24.840Z,49.80
2019-03-04T23:26:51.462Z,49.90
2019-03-04T23:29:18.001Z,49.80
2019-03-04T23:31:44.841Z,49.90
2019-03-04T23:34:11.387Z,50.00
2019-03-04T23:36:38.516Z,50.00
2019-03-04T23:39:05.052Z,49.90
2019-03-04T23:41:31.650Z,50.10
2019-03-04T23:43:58.429Z,50.00
2019-03-04T23:46:25.878Z,50.10
2019-03-04T23:48:52.425Z,50.20
2019-03-04T23:51:19.263Z,50.20
2019-03-04T23:53:47.777Z,50.00
2019-03-04T23:56:15.095Z,50.80
2019-03-04T23:58:41.937Z,50.00
